Time;durP1;ratioP1;P1;durP2;ratioP2;P2;SDS_P1;SDS_P2;PMS_P1;PMS_P2;Temp;Humidity;BMP_temperature;BMP_pressure;BME280_temperature;BME280_humidity;BME280_pressure;Samples;Min_cycle;Max_cycle;Signal;HPM_P1;HPM_P2
2022/07/12 00:03:20;;;;;;;0.20;0.00;;;23.60;99.90;;;;;;25673247;23;20225;-70
2022/07/12 00:13:24;;;;;;;0.20;0.00;;;23.70;99.90;;;;;;25698696;23;20170;-70
2022/07/12 00:23:30;;;;;;;0.20;0.00;;;23.50;99.90;;;;;;25698762;23;20209;-70
2022/07/12 00:33:34;;;;;;;0.20;0.00;;;23.70;99.90;;;;;;25697925;23;20787;-70
2022/07/12 00:43:39;;;;;;;0.20;0.00;;;23.50;99.90;;;;;;25697513;23;20186;-70
2022/07/12 00:53:43;;;;;;;0.20;0.00;;;23.50;99.90;;;;;;25671535;23;20193;-70
2022/07/12 01:03:48;;;;;;;0.20;0.00;;;23.80;99.90;;;;;;25670765;23;20205;-69
2022/07/12 01:13:52;;;;;;;0.20;0.00;;;23.90;99.90;;;;;;25670437;23;20221;-70
2022/07/12 01:23:58;;;;;;;0.20;0.00;;;24.00;99.90;;;;;;25697077;23;20197;-70
2022/07/12 01:34:03;;;;;;;0.20;0.00;;;23.90;99.90;;;;;;25678294;23;20166;-69
2022/07/12 01:44:08;;;;;;;0.20;0.00;;;24.00;99.90;;;;;;25704285;23;20258;-69
2022/07/12 01:54:12;;;;;;;0.20;0.00;;;23.90;99.90;;;;;;25678156;23;20173;-67
2022/07/12 02:04:19;;;;;;;0.20;0.10;;;23.50;99.90;;;;;;25676962;23;20222;-69
2022/07/12 02:14:23;;;;;;;0.20;0.00;;;23.50;99.90;;;;;;25677672;23;20213;-70
2022/07/12 02:24:28;;;;;;;0.20;0.00;;;23.50;99.90;;;;;;25702317;23;20674;-69
2022/07/12 02:34:32;;;;;;;0.20;0.00;;;23.40;99.90;;;;;;25676703;23;20170;-69
2022/07/12 02:44:37;;;;;;;0.20;0.10;;;23.50;99.90;;;;;;25702455;23;20206;-70
2022/07/12 02:54:41;;;;;;;0.20;0.00;;;23.10;99.90;;;;;;25675633;23;20166;-70
2022/07/12 03:04:46;;;;;;;0.20;0.00;;;23.10;99.90;;;;;;25675245;23;20252;-69
2022/07/12 03:14:50;;;;;;;0.20;0.00;;;22.70;99.90;;;;;;25700929;23;20173;-69
2022/07/12 03:24:56;;;;;;;0.20;0.00;;;22.60;99.90;;;;;;25674649;23;20185;-70
2022/07/12 03:35:00;;;;;;;0.20;0.00;;;22.50;99.90;;;;;;25700088;23;20217;-70
2022/07/12 03:45:06;;;;;;;0.20;0.00;;;22.50;99.90;;;;;;25673765;23;20249;-70
2022/07/12 03:55:11;;;;;;;0.20;0.00;;;22.40;99.90;;;;;;25672593;23;20221;-68
2022/07/12 04:05:17;;;;;;;0.20;0.10;;;22.30;99.90;;;;;;25697223;23;20213;-69
2022/07/12 04:15:21;;;;;;;0.20;0.00;;;22.40;99.90;;;;;;25697013;23;20170;-69
2022/07/12 04:25:26;;;;;;;0.20;0.00;;;22.70;99.90;;;;;;25672016;23;20197;-70
2022/07/12 04:35:30;;;;;;;0.20;0.00;;;22.20;99.90;;;;;;25671342;23;20170;-68
2022/07/12 04:45:35;;;;;;;0.20;0.00;;;22.00;99.90;;;;;;25670432;23;20201;-69
2022/07/12 04:55:39;;;;;;;0.20;0.10;;;22.10;99.90;;;;;;25696045;23;20182;-69
2022/07/12 05:05:45;;;;;;;0.20;0.10;;;22.20;99.90;;;;;;25695194;23;20198;-69
2022/07/12 05:15:49;;;;;;;0.20;0.10;;;22.30;99.90;;;;;;25696382;23;20154;-70
2022/07/12 05:25:54;;;;;;;0.20;0.00;;;22.40;99.90;;;;;;25694539;23;20189;-71
2022/07/12 05:35:58;;;;;;;0.20;0.00;;;22.70;99.90;;;;;;25695078;23;20214;-69
2022/07/12 05:46:03;;;;;;;0.20;0.00;;;22.90;99.90;;;;;;25693648;23;20190;-69
2022/07/12 05:56:07;;;;;;;0.20;0.10;;;23.70;99.90;;;;;;25691195;23;20170;-69
2022/07/12 06:06:12;;;;;;;0.20;0.00;;;24.40;99.90;;;;;;25663893;23;20217;-70
2022/07/12 06:16:16;;;;;;;0.20;0.00;;;25.00;99.90;;;;;;25698560;23;20170;-69
2022/07/12 06:26:21;;;;;;;0.20;0.10;;;25.40;99.90;;;;;;25698910;23;20209;-71
2022/07/12 06:36:26;;;;;;;0.20;0.00;;;25.60;99.90;;;;;;25672141;23;20197;-69
2022/07/12 06:46:31;;;;;;;0.20;0.10;;;25.70;99.90;;;;;;25695622;23;20228;-70
2022/07/12 06:56:35;;;;;;;0.20;0.00;;;26.00;99.90;;;;;;25694585;23;20166;-68
2022/07/12 07:06:40;;;;;;;0.20;0.00;;;26.00;99.90;;;;;;25667540;23;20206;-69
2022/07/12 07:16:44;;;;;;;0.20;0.00;;;26.00;99.90;;;;;;25693610;23;20162;-68
2022/07/12 07:26:49;;;;;;;0.20;0.00;;;26.00;99.90;;;;;;25694541;23;20200;-68
2022/07/12 07:37:00;;;;;;;0.20;0.10;;;25.80;99.90;;;;;;25695216;23;20154;-69
2022/07/12 07:47:05;;;;;;;0.20;0.00;;;26.00;99.90;;;;;;25668652;23;20202;-68
2022/07/12 07:57:10;;;;;;;0.20;0.10;;;25.80;99.90;;;;;;25692718;23;20224;-68
2022/07/12 08:07:15;;;;;;;0.20;0.00;;;25.90;99.90;;;;;;25693234;23;20296;-68
2022/07/12 08:17:39;;;;;;;0.20;0.00;;;26.00;99.90;;;;;;25693173;23;20163;-69
2022/07/12 08:27:51;;;;;;;0.20;0.00;;;26.10;99.90;;;;;;25669250;23;20195;-68
2022/07/12 08:37:55;;;;;;;0.20;0.00;;;26.20;99.90;;;;;;25692533;23;20174;-67
2022/07/12 08:48:01;;;;;;;0.20;0.00;;;26.20;99.90;;;;;;25692734;23;20209;-67
2022/07/12 08:58:15;;;;;;;0.20;0.10;;;26.20;99.90;;;;;;25641085;23;20190;-68
2022/07/12 09:08:26;;;;;;;0.20;0.00;;;26.20;99.90;;;;;;25692648;23;20208;-68
2022/07/12 09:18:30;;;;;;;0.20;0.10;;;26.20;99.90;;;;;;25666408;23;20177;-68
2022/07/12 09:28:36;;;;;;;0.20;0.00;;;26.50;99.90;;;;;;25692130;23;20190;-68
2022/07/12 09:38:49;;;;;;;0.20;0.00;;;26.50;99.90;;;;;;25693355;23;20170;-69
2022/07/12 09:48:55;;;;;;;0.20;0.00;;;26.70;99.90;;;;;;25690481;23;20204;-67
2022/07/12 09:59:01;;;;;;;0.20;0.00;;;26.90;99.90;;;;;;25667369;23;20205;-68
2022/07/12 10:09:07;;;;;;;0.20;0.00;;;27.30;99.90;;;;;;25668153;23;20178;-67
2022/07/12 10:19:28;;;;;;;0.20;0.00;;;27.00;99.90;;;;;;25694368;23;20277;-67
2022/07/12 10:29:33;;;;;;;0.20;0.00;;;27.30;99.90;;;;;;25693452;23;20197;-67
2022/07/12 10:39:37;;;;;;;0.20;0.10;;;27.60;99.90;;;;;;25690797;23;20174;-67
2022/07/12 10:49:48;;;;;;;0.20;0.00;;;27.20;99.90;;;;;;25692486;23;20205;-67
2022/07/12 10:59:55;;;;;;;0.20;0.00;;;27.80;99.90;;;;;;25692700;23;20244;-67
2022/07/12 11:10:00;;;;;;;0.20;0.08;;;27.80;99.90;;;;;;25690320;23;20202;-67
2022/07/12 11:20:10;;;;;;;0.20;0.00;;;28.60;99.90;;;;;;25691206;23;20225;-67
2022/07/12 11:30:16;;;;;;;0.20;0.10;;;28.30;99.90;;;;;;25662824;23;20185;-67
2022/07/12 11:40:28;;;;;;;0.20;0.00;;;29.40;99.90;;;;;;25689255;23;20181;-67
2022/07/12 11:50:34;;;;;;;0.20;0.00;;;29.60;99.90;;;;;;25685419;23;20181;-67
2022/07/12 12:00:39;;;;;;;0.20;0.00;;;30.10;99.90;;;;;;25687869;23;20224;-68
2022/07/12 12:10:53;;;;;;;0.20;0.08;;;30.20;99.90;;;;;;25689080;23;20189;-67
2022/07/12 12:21:02;;;;;;;0.20;0.00;;;30.50;99.90;;;;;;25689721;23;20161;-67
2022/07/12 12:31:10;;;;;;;0.20;0.00;;;31.00;99.90;;;;;;25663936;23;20201;-66
2022/07/12 12:41:14;;;;;;;0.20;0.10;;;31.00;99.90;;;;;;25690161;23;20266;-67
2022/07/12 12:51:20;;;;;;;0.20;0.00;;;30.70;99.90;;;;;;25690535;23;20186;-67
2022/07/12 13:01:24;;;;;;;0.20;0.00;;;31.20;99.90;;;;;;25664326;23;20201;-68
2022/07/12 13:11:33;;;;;;;0.20;0.00;;;31.20;99.90;;;;;;25689230;23;20194;-66
2022/07/12 13:21:37;;;;;;;0.20;0.00;;;32.40;99.90;;;;;;25690995;23;20170;-67
2022/07/12 13:31:42;;;;;;;0.20;0.10;;;31.30;99.90;;;;;;25697922;23;20253;-67
2022/07/12 13:41:46;;;;;;;0.20;0.00;;;32.20;99.90;;;;;;25669118;23;20194;-67
2022/07/12 13:51:52;;;;;;;0.20;0.00;;;32.70;99.90;;;;;;25696050;23;20190;-66
2022/07/12 14:01:56;;;;;;;0.20;0.00;;;31.80;99.90;;;;;;25694656;23;20198;-69
2022/07/12 14:12:02;;;;;;;0.20;0.00;;;32.40;99.90;;;;;;25695553;23;20238;-68
2022/07/12 14:22:06;;;;;;;0.20;0.00;;;31.80;99.90;;;;;;25694037;23;20170;-69
2022/07/12 14:32:12;;;;;;;0.20;0.00;;;32.40;99.90;;;;;;25672614;23;20209;-68
2022/07/12 14:42:16;;;;;;;0.20;0.00;;;32.40;99.90;;;;;;25697924;23;20162;-68
2022/07/12 14:52:21;;;;;;;0.20;0.00;;;32.00;99.90;;;;;;25696053;23;20310;-68
2022/07/12 15:02:26;;;;;;;0.20;0.00;;;32.40;99.90;;;;;;25693953;23;20262;-68
2022/07/12 15:12:32;;;;;;;1.13;1.13;;;33.00;99.90;;;;;;25695500;23;20190;-68
2022/07/12 15:22:35;;;;;;;0.20;0.00;;;34.00;99.90;;;;;;25667880;23;20213;-69
2022/07/12 15:32:42;;;;;;;0.20;0.00;;;34.00;99.90;;;;;;25693279;23;20190;-68
2022/07/12 15:42:46;;;;;;;0.20;0.00;;;33.30;99.90;;;;;;25691680;23;20197;-68
2022/07/12 16:03:13;;;;;;;0.20;0.00;;;33.30;99.90;;;;;;25692411;23;20204;-68
2022/07/12 16:13:18;;;;;;;0.20;0.00;;;33.60;99.90;;;;;;25687590;23;20225;-68
2022/07/12 16:23:22;;;;;;;0.20;0.00;;;32.40;99.90;;;;;;25688093;23;20186;-69
2022/07/12 16:33:27;;;;;;;0.20;0.00;;;31.50;99.90;;;;;;25661939;23;20205;-68
2022/07/12 16:43:31;;;;;;;0.20;0.00;;;31.10;99.90;;;;;;25638753;23;20206;-67
2022/07/12 16:53:37;;;;;;;0.20;0.10;;;31.40;99.90;;;;;;25662091;23;20269;-68
2022/07/12 17:03:41;;;;;;;0.20;0.00;;;30.50;99.90;;;;;;25687360;23;20229;-69
2022/07/12 17:13:46;;;;;;;0.20;0.00;;;31.60;99.90;;;;;;25660114;23;20980;-69
2022/07/12 17:23:49;;;;;;;0.20;0.00;;;33.00;99.90;;;;;;25687065;23;20170;-68
2022/07/12 17:34:15;;;;;;;0.20;0.10;;;33.50;99.90;;;;;;25686907;23;20189;-68
2022/07/12 17:44:21;;;;;;;0.20;0.00;;;33.30;99.90;;;;;;25687514;23;20185;-67
2022/07/12 17:54:29;;;;;;;0.20;0.00;;;32.70;99.90;;;;;;25687305;23;20189;-67
2022/07/12 18:04:33;;;;;;;0.20;0.00;;;32.20;99.90;;;;;;25658866;23;20294;-67
2022/07/12 18:14:45;;;;;;;0.20;0.03;;;32.40;99.90;;;;;;25690927;23;20190;-67
2022/07/12 18:24:57;;;;;;;0.20;0.00;;;32.10;99.90;;;;;;25665280;23;20182;-68
2022/07/12 18:35:06;;;;;;;0.20;0.00;;;32.10;99.90;;;;;;25692843;23;20173;-67
2022/07/12 18:45:11;;;;;;;0.20;0.00;;;31.50;99.90;;;;;;25663588;23;20182;-68
2022/07/12 18:55:16;;;;;;;0.20;0.00;;;31.30;99.90;;;;;;25691084;23;20201;-67
2022/07/12 19:05:19;;;;;;;0.20;0.00;;;29.90;99.90;;;;;;25665165;23;20229;-67
2022/07/12 19:15:27;;;;;;;0.20;0.00;;;28.50;99.90;;;;;;25689570;23;20169;-67
2022/07/12 19:25:31;;;;;;;0.20;0.00;;;28.00;99.90;;;;;;25687593;23;20182;-68
2022/07/12 19:35:37;;;;;;;0.20;0.00;;;27.70;99.90;;;;;;25660265;23;20252;-68
2022/07/12 19:45:40;;;;;;;0.20;0.00;;;27.30;99.90;;;;;;25691480;23;20233;-67
2022/07/12 19:55:46;;;;;;;0.20;0.00;;;27.30;99.90;;;;;;25692197;23;20174;-67
2022/07/12 20:05:56;;;;;;;0.20;0.00;;;27.20;99.90;;;;;;25657799;23;20197;-68
2022/07/12 20:16:03;;;;;;;0.20;0.00;;;26.90;99.90;;;;;;25684491;23;20174;-68
2022/07/12 20:26:07;;;;;;;0.20;0.00;;;26.90;99.90;;;;;;25665672;23;20293;-68
2022/07/12 20:36:13;;;;;;;0.20;0.00;;;26.60;99.90;;;;;;25692042;23;20194;-67
2022/07/12 20:46:17;;;;;;;0.20;0.00;;;26.50;99.90;;;;;;25690083;23;21015;-68
2022/07/12 20:56:22;;;;;;;0.20;0.00;;;26.40;99.90;;;;;;25665522;23;20171;-67
2022/07/12 21:06:26;;;;;;;0.20;0.00;;;26.40;99.90;;;;;;25664248;23;20201;-67
2022/07/12 21:16:32;;;;;;;0.20;0.00;;;26.30;99.90;;;;;;25668569;23;20189;-68
2022/07/12 21:26:36;;;;;;;0.20;0.00;;;26.00;99.90;;;;;;25692195;23;20186;-69
2022/07/12 21:36:41;;;;;;;0.20;0.00;;;25.90;99.90;;;;;;25694549;23;20182;-69
2022/07/12 21:46:45;;;;;;;0.20;0.00;;;26.00;99.90;;;;;;25702232;23;20182;-69
2022/07/12 21:56:50;;;;;;;0.20;0.10;;;25.60;99.90;;;;;;25703175;23;20162;-69
2022/07/12 22:06:54;;;;;;;0.20;0.00;;;25.40;99.90;;;;;;25676654;23;20233;-69
2022/07/12 22:17:00;;;;;;;0.20;0.00;;;25.30;99.90;;;;;;25676477;23;20178;-69
2022/07/12 22:27:04;;;;;;;0.20;0.00;;;25.10;99.90;;;;;;25702695;23;20233;-69
2022/07/12 22:37:09;;;;;;;0.20;0.00;;;25.20;99.90;;;;;;25703087;23;20186;-68
2022/07/12 22:47:14;;;;;;;0.20;0.00;;;25.10;99.90;;;;;;25675248;23;20190;-69
2022/07/12 22:57:20;;;;;;;0.20;0.10;;;25.20;99.90;;;;;;25702444;23;20209;-69
2022/07/12 23:07:23;;;;;;;0.20;0.10;;;25.20;99.90;;;;;;25701862;23;20261;-70
2022/07/12 23:17:29;;;;;;;0.20;0.00;;;25.50;99.90;;;;;;25701811;23;20264;-70
2022/07/12 23:27:33;;;;;;;0.20;0.00;;;25.60;99.90;;;;;;25700887;23;20210;-69
2022/07/12 23:37:38;;;;;;;0.20;0.10;;;26.10;99.90;;;;;;25700827;23;20217;-69
2022/07/12 23:47:42;;;;;;;0.20;0.00;;;26.30;99.90;;;;;;25700324;23;20210;-69
2022/07/12 23:57:48;;;;;;;0.20;0.10;;;26.60;99.90;;;;;;25700167;23;20217;-69
